Bunker, Utah
Current Conditions -  °F | °C
As of 11:35 PM on Wednesday 28 Jan 2015 (Local Time) from KPVU Reporting Station
Clear Clear  
Wind Chill: 34°   Ceiling: Unl
Heat Index: 34°   Visibility: 6mi
Dew Point: 30°   Wind: 0mph
Humidity: 87%   Direction: NA
Pressure: 30.36"   Gusts: NA
Location:  40.2724°N, 111.717°W
Report Text: KPVU 290635Z AUTO 00000KT 6SM CLR 01/M01 A3036 RMK AO1
Loading
Personal Weather Stations






























Interactive Weather Map New forecast layout! Learn more

10-Day Weather Forecast

Advertisements
Track Severe Weather on mobile